Time;durP1;ratioP1;P1;durP2;ratioP2;P2;SDS_P1;SDS_P2;PMS_P1;PMS_P2;Temp;Humidity;BMP_temperature;BMP_pressure;BME280_temperature;BME280_humidity;BME280_pressure;Samples;Min_cycle;Max_cycle;Signal;HPM_P1;HPM_P2
2022/10/26 00:01:35;;;;;;;;;;;;;;;-1.09;80.90;100247.91;5089718;28;19928;-66
2022/10/26 00:04:01;;;;;;;;;;;;;;;-1.19;81.32;100245.47;5087093;28;20394;-64
2022/10/26 00:06:27;;;;;;;;;;;;;;;-1.23;81.41;100254.09;5086656;28;19977;-66
2022/10/26 00:08:54;;;;;;;;;;;;;;;-1.28;81.48;100251.97;5087163;28;19936;-66
2022/10/26 00:11:20;;;;;;;;;;;;;;;-1.31;81.72;100242.44;5089415;28;19928;-67
2022/10/26 00:13:46;;;;;;;;;;;;;;;-1.32;81.87;100239.94;5085323;28;19928;-67
2022/10/26 00:16:13;;;;;;;;;;;;;;;-1.34;82.44;100234.75;5086623;28;19928;-67
2022/10/26 00:18:41;;;;;;;;;;;;;;;-1.35;82.35;100246.50;5088291;28;19954;-66
2022/10/26 00:21:07;;;;;;;;;;;;;;;-1.34;82.24;100248.19;5086273;28;19927;-66
2022/10/26 00:23:32;;;;;;;;;;;;;;;-1.36;82.11;100246.69;5086683;28;19928;-65
2022/10/26 00:25:58;;;;;;;;;;;;;;;-1.41;82.12;100252.59;5090485;28;19951;-65
2022/10/26 00:28:24;;;;;;;;;;;;;;;-1.47;82.51;100246.16;5069072;28;20003;-66
2022/10/26 00:30:50;;;;;;;;;;;;;;;-1.53;82.39;100241.50;5087749;28;20347;-66
2022/10/26 00:33:16;;;;;;;;;;;;;;;-1.61;82.94;100234.38;5100326;28;19928;-67
2022/10/26 00:35:45;;;;;;;;;;;;;;;-1.67;83.07;100243.16;5108984;27;19927;-66
2022/10/26 00:38:11;;;;;;;;;;;;;;;-1.75;83.28;100232.50;5109185;28;19946;-66
2022/10/26 00:40:37;;;;;;;;;;;;;;;-1.82;83.69;100228.91;5106014;28;19935;-66
2022/10/26 00:43:03;;;;;;;;;;;;;;;-1.87;83.91;100226.78;5099866;28;20346;-66
2022/10/26 00:45:29;;;;;;;;;;;;;;;-1.90;84.23;100227.13;5087216;28;20390;-65
2022/10/26 00:47:56;;;;;;;;;;;;;;;-1.93;84.39;100231.00;5085753;28;19928;-66
2022/10/26 00:50:25;;;;;;;;;;;;;;;-1.96;84.61;100228.69;5086678;28;19989;-66
2022/10/26 00:52:52;;;;;;;;;;;;;;;-1.96;84.80;100227.84;5087663;28;20431;-65
2022/10/26 00:55:20;;;;;;;;;;;;;;;-1.97;84.97;100221.69;5090132;28;19928;-64
2022/10/26 00:57:46;;;;;;;;;;;;;;;-1.98;85.21;100229.88;5089530;28;19928;-66
2022/10/26 01:00:12;;;;;;;;;;;;;;;-1.97;85.18;100235.06;5088749;28;20517;-65
2022/10/26 01:02:38;;;;;;;;;;;;;;;-1.99;85.42;100231.75;5086750;28;19928;-65
2022/10/26 01:05:05;;;;;;;;;;;;;;;-1.99;85.40;100231.75;5099930;28;19935;-65
2022/10/26 01:07:31;;;;;;;;;;;;;;;-1.96;85.43;100236.75;5105283;28;19939;-64
2022/10/26 01:09:59;;;;;;;;;;;;;;;-1.95;85.57;100233.03;5109223;28;19928;-66
2022/10/26 01:12:25;;;;;;;;;;;;;;;-1.89;85.60;100234.16;5109710;28;20401;-65
2022/10/26 01:14:50;;;;;;;;;;;;;;;-1.81;85.33;100231.38;5103859;28;19959;-64
2022/10/26 01:17:29;;;;;;;;;;;;;;;-1.75;85.26;100230.69;5105447;28;19928;-65
2022/10/26 01:20:22;;;;;;;;;;;;;;;-1.67;85.00;100224.41;5088926;28;20429;-65
2022/10/26 01:22:50;;;;;;;;;;;;;;;-1.60;84.67;100229.88;5078010;28;20289;-65
2022/10/26 01:25:27;;;;;;;;;;;;;;;-1.55;84.57;100219.41;5104567;28;20434;-64
2022/10/26 01:27:53;;;;;;;;;;;;;;;-1.48;84.42;100227.53;5104411;28;20309;-65
2022/10/26 01:30:26;;;;;;;;;;;;;;;-1.39;84.12;100221.09;5107265;28;20387;-64
2022/10/26 01:33:09;;;;;;;;;;;;;;;-1.30;83.59;100224.50;5089023;28;19972;-65
2022/10/26 01:35:37;;;;;;;;;;;;;;;-1.21;83.38;100225.22;5105146;28;19932;-65
2022/10/26 01:38:05;;;;;;;;;;;;;;;-1.15;82.87;100229.84;5086711;28;20014;-64
2022/10/26 01:40:33;;;;;;;;;;;;;;;-1.11;82.48;100222.25;5086663;28;19928;-66
2022/10/26 01:43:01;;;;;;;;;;;;;;;-1.08;82.31;100221.88;5085698;28;19928;-65
2022/10/26 01:45:29;;;;;;;;;;;;;;;-1.08;81.91;100227.25;5085761;28;19928;-66
2022/10/26 01:47:56;;;;;;;;;;;;;;;-1.06;82.20;100220.66;5075866;28;20426;-65
2022/10/26 01:50:23;;;;;;;;;;;;;;;-1.02;81.61;100219.25;5099846;28;19928;-69
2022/10/26 01:52:49;;;;;;;;;;;;;;;-0.95;81.50;100218.50;5086108;28;19928;-64
2022/10/26 01:55:33;;;;;;;;;;;;;;;-0.93;81.04;100214.63;5087436;28;19942;-64
2022/10/26 01:58:04;;;;;;;;;;;;;;;-0.87;80.98;100226.47;5093553;28;19930;-65
2022/10/26 02:00:35;;;;;;;;;;;;;;;-0.82;80.76;100233.94;5104048;28;19931;-64
2022/10/26 02:03:04;;;;;;;;;;;;;;;-0.77;80.28;100223.47;5106763;28;20318;-65
2022/10/26 02:05:47;;;;;;;;;;;;;;;-0.75;80.21;100229.47;5108040;28;19928;-64
2022/10/26 02:08:20;;;;;;;;;;;;;;;-0.77;80.10;100234.22;5104810;28;20165;-65
2022/10/26 02:10:53;;;;;;;;;;;;;;;-0.74;80.15;100236.50;5106579;28;19935;-64
2022/10/26 02:13:24;;;;;;;;;;;;;;;-0.76;80.10;100231.34;5105383;28;19927;-65
2022/10/26 02:15:53;;;;;;;;;;;;;;;-0.79;79.95;100236.25;5088551;28;20061;-64
2022/10/26 02:18:24;;;;;;;;;;;;;;;-0.86;79.83;100233.50;5103888;28;19934;-65
2022/10/26 02:20:52;;;;;;;;;;;;;;;-0.95;80.09;100231.94;5100271;28;19932;-65
2022/10/26 02:23:19;;;;;;;;;;;;;;;-1.08;80.04;100227.25;5085200;28;19935;-65
2022/10/26 02:25:48;;;;;;;;;;;;;;;-1.17;80.72;100235.41;5082886;28;20703;-66
2022/10/26 02:28:16;;;;;;;;;;;;;;;-1.26;80.87;100236.50;5087614;28;20047;-65
2022/10/26 02:30:43;;;;;;;;;;;;;;;-1.33;81.30;100231.06;5084982;28;19935;-64
2022/10/26 02:33:11;;;;;;;;;;;;;;;-1.40;81.24;100237.34;5084053;28;19928;-64
2022/10/26 02:35:40;;;;;;;;;;;;;;;-1.50;81.56;100225.03;5086181;28;20387;-64
2022/10/26 02:38:07;;;;;;;;;;;;;;;-1.57;82.08;100218.75;5084181;28;19935;-64
2022/10/26 02:40:34;;;;;;;;;;;;;;;-1.65;82.18;100217.00;5084847;28;19950;-64
2022/10/26 02:43:04;;;;;;;;;;;;;;;-1.68;82.57;100211.16;5089327;28;19967;-64
2022/10/26 02:45:32;;;;;;;;;;;;;;;-1.70;82.70;100224.78;5091298;28;19989;-64
2022/10/26 02:47:58;;;;;;;;;;;;;;;-1.69;82.82;100223.75;5091398;28;19935;-64
2022/10/26 02:50:27;;;;;;;;;;;;;;;-1.68;83.00;100221.88;5087608;28;19928;-64
2022/10/26 02:53:00;;;;;;;;;;;;;;;-1.67;83.23;100219.03;5096565;28;19966;-64
2022/10/26 02:55:27;;;;;;;;;;;;;;;-1.64;83.13;100210.63;5106770;28;20148;-64
2022/10/26 02:57:54;;;;;;;;;;;;;;;-1.59;83.08;100223.47;5108438;28;20413;-65
2022/10/26 03:00:20;;;;;;;;;;;;;;;-1.55;82.95;100227.44;5105596;28;20059;-65
2022/10/26 03:02:50;;;;;;;;;;;;;;;-1.67;82.90;100197.59;5089200;28;19932;-66
2022/10/26 03:05:19;;;;;;;;;;;;;;;-1.50;83.01;100218.84;5088694;28;19932;-66
2022/10/26 03:07:46;;;;;;;;;;;;;;;-1.47;82.74;100223.84;5087617;28;19935;-66
2022/10/26 03:10:12;;;;;;;;;;;;;;;-1.41;82.85;100224.97;5086197;28;19951;-66
2022/10/26 03:12:38;;;;;;;;;;;;;;;-1.37;82.71;100221.72;5086934;28;20396;-66
2022/10/26 03:15:04;;;;;;;;;;;;;;;-1.31;82.41;100220.16;5086625;28;20122;-65
2022/10/26 03:17:29;;;;;;;;;;;;;;;-1.23;82.50;100216.53;5087990;28;19928;-64
2022/10/26 03:19:55;;;;;;;;;;;;;;;-1.16;82.34;100214.75;5089004;28;20026;-64
2022/10/26 03:22:21;;;;;;;;;;;;;;;-1.11;81.83;100217.69;5089585;28;19934;-65
2022/10/26 03:24:48;;;;;;;;;;;;;;;-1.04;81.51;100218.63;5085984;28;19935;-65
2022/10/26 03:27:13;;;;;;;;;;;;;;;-1.01;81.31;100217.44;5086301;28;20917;-66
2022/10/26 03:29:39;;;;;;;;;;;;;;;-1.03;80.96;100217.59;5088346;28;19955;-66
2022/10/26 03:32:05;;;;;;;;;;;;;;;-1.00;80.93;100221.78;5089240;28;19934;-66
2022/10/26 03:34:31;;;;;;;;;;;;;;;-0.94;80.91;100223.69;5087915;28;19928;-66
2022/10/26 03:36:56;;;;;;;;;;;;;;;-0.91;80.47;100226.00;5103228;28;20429;-66
2022/10/26 03:39:22;;;;;;;;;;;;;;;-0.84;80.55;100220.72;5104944;28;19935;-67
2022/10/26 03:41:49;;;;;;;;;;;;;;;-0.80;80.26;100224.66;5107543;28;19927;-66
2022/10/26 03:44:15;;;;;;;;;;;;;;;-0.77;79.98;100224.31;5105380;28;19972;-64
2022/10/26 03:46:41;;;;;;;;;;;;;;;-0.72;79.94;100218.34;5103525;28;19928;-64
2022/10/26 03:49:06;;;;;;;;;;;;;;;-0.68;79.55;100214.28;5106957;28;20351;-64
2022/10/26 03:51:32;;;;;;;;;;;;;;;-0.63;79.55;100205.63;5107524;28;20017;-64
2022/10/26 03:53:58;;;;;;;;;;;;;;;-0.56;79.46;100206.53;5107579;28;19997;-64
2022/10/26 03:56:23;;;;;;;;;;;;;;;-0.53;79.05;100208.03;5108664;28;19967;-66
2022/10/26 03:58:50;;;;;;;;;;;;;;;-0.51;78.91;100206.78;5103063;28;19928;-65
2022/10/26 04:01:16;;;;;;;;;;;;;;;-0.48;78.72;100201.03;5104494;28;19976;-65
2022/10/26 04:03:42;;;;;;;;;;;;;;;-0.45;78.71;100207.88;5105991;28;19936;-65
2022/10/26 04:06:07;;;;;;;;;;;;;;;-0.44;78.42;100214.91;5089283;28;19928;-65
2022/10/26 04:08:33;;;;;;;;;;;;;;;-0.43;78.36;100208.53;5107788;28;20143;-65
2022/10/26 04:10:59;;;;;;;;;;;;;;;-0.44;78.26;100206.84;5107143;28;19949;-65
2022/10/26 04:13:25;;;;;;;;;;;;;;;-0.47;78.45;100209.94;5105916;28;19931;-65
2022/10/26 04:15:52;;;;;;;;;;;;;;;-0.47;78.28;100210.78;5106474;28;19981;-65
2022/10/26 04:18:17;;;;;;;;;;;;;;;-0.45;78.23;100215.94;5101570;28;20317;-65
2022/10/26 04:20:43;;;;;;;;;;;;;;;-0.45;78.39;100214.09;5103142;28;19931;-65
2022/10/26 04:23:10;;;;;;;;;;;;;;;-0.41;78.17;100211.84;5104121;28;19928;-65
2022/10/26 04:25:36;;;;;;;;;;;;;;;-0.43;78.12;100212.06;5108558;28;19927;-64
2022/10/26 04:28:03;;;;;;;;;;;;;;;-0.45;78.15;100216.78;5107645;28;19928;-64
2022/10/26 04:30:29;;;;;;;;;;;;;;;-0.44;78.27;100217.59;5103524;28;19928;-64
2022/10/26 04:32:56;;;;;;;;;;;;;;;-0.42;78.12;100218.25;5085990;28;20034;-64
2022/10/26 04:35:22;;;;;;;;;;;;;;;-0.34;78.09;100226.19;5085438;28;19935;-64
2022/10/26 04:37:49;;;;;;;;;;;;;;;-0.27;77.78;100231.63;5090755;28;19920;-65
2022/10/26 04:40:16;;;;;;;;;;;;;;;-0.21;77.61;100232.72;5088694;28;19928;-64
2022/10/26 04:42:42;;;;;;;;;;;;;;;-0.15;77.30;100237.31;5096354;28;19934;-66
2022/10/26 04:45:09;;;;;;;;;;;;;;;-0.12;77.02;100238.78;5084859;28;19963;-65
2022/10/26 04:47:34;;;;;;;;;;;;;;;-0.13;77.15;100235.25;5087286;28;19934;-65
2022/10/26 04:50:01;;;;;;;;;;;;;;;-0.07;76.85;100233.66;5086871;28;20027;-65
2022/10/26 04:52:28;;;;;;;;;;;;;;;0.01;76.56;100243.44;5088104;28;19928;-66
2022/10/26 04:54:54;;;;;;;;;;;;;;;0.07;76.19;100235.44;5065138;28;20008;-65
2022/10/26 04:57:20;;;;;;;;;;;;;;;0.13;76.03;100241.88;5083136;28;20299;-66
2022/10/26 04:59:45;;;;;;;;;;;;;;;0.19;75.78;100242.97;5083661;28;20311;-66
2022/10/26 05:02:11;;;;;;;;;;;;;;;0.19;75.73;100243.78;5080549;28;20260;-66
2022/10/26 05:04:37;;;;;;;;;;;;;;;0.18;75.67;100234.06;4747418;28;10000390;-66
2022/10/26 05:07:04;;;;;;;;;;;;;;;0.21;75.66;100236.34;5103406;28;20470;-65
2022/10/26 05:09:29;;;;;;;;;;;;;;;0.21;75.27;100239.03;5101459;28;20075;-65
2022/10/26 05:11:55;;;;;;;;;;;;;;;0.25;75.28;100236.78;5101894;28;20452;-65
2022/10/26 05:14:21;;;;;;;;;;;;;;;0.26;75.03;100238.44;5067124;28;20097;-65
2022/10/26 05:16:46;;;;;;;;;;;;;;;0.28;75.23;100236.41;5097801;28;20313;-66
2022/10/26 05:19:12;;;;;;;;;;;;;;;0.34;74.96;100229.41;5085699;28;20387;-65
2022/10/26 05:21:38;;;;;;;;;;;;;;;0.40;74.83;100239.41;5103958;28;19928;-65
2022/10/26 05:24:05;;;;;;;;;;;;;;;0.49;74.59;100230.13;5102719;28;20288;-65
2022/10/26 05:26:31;;;;;;;;;;;;;;;0.56;74.30;100235.53;5105222;28;20487;-65
2022/10/26 05:28:57;;;;;;;;;;;;;;;0.61;74.40;100230.38;5105558;28;20403;-65
2022/10/26 05:31:23;;;;;;;;;;;;;;;0.62;74.28;100232.06;5095048;28;20022;-65
2022/10/26 05:33:49;;;;;;;;;;;;;;;0.69;74.07;100241.00;5093717;28;19932;-64
2022/10/26 05:36:15;;;;;;;;;;;;;;;0.70;73.85;100239.97;5095360;28;19932;-65
2022/10/26 05:38:41;;;;;;;;;;;;;;;0.62;74.00;100239.31;5098122;28;19988;-64
2022/10/26 05:41:08;;;;;;;;;;;;;;;0.61;74.09;100235.78;5097518;28;19959;-65
2022/10/26 05:43:34;;;;;;;;;;;;;;;0.69;74.00;100235.63;5090604;28;19975;-65
2022/10/26 05:45:59;;;;;;;;;;;;;;;0.76;73.78;100232.97;5082630;28;19964;-65
2022/10/26 05:48:25;;;;;;;;;;;;;;;0.81;73.34;100241.28;5088647;28;20050;-66
2022/10/26 05:50:51;;;;;;;;;;;;;;;0.81;73.31;100241.28;5082995;28;20364;-66
2022/10/26 05:53:17;;;;;;;;;;;;;;;0.84;73.41;100248.13;5083538;28;19934;-66
2022/10/26 05:55:43;;;;;;;;;;;;;;;0.91;73.32;100242.78;5078317;28;19928;-65
2022/10/26 05:58:11;;;;;;;;;;;;;;;0.96;73.34;100246.53;5084222;28;20435;-66
2022/10/26 06:00:41;;;;;;;;;;;;;;;1.06;73.11;100240.78;5091607;28;20478;-66
2022/10/26 06:03:11;;;;;;;;;;;;;;;1.11;72.83;100245.56;5104618;28;19935;-66
2022/10/26 06:05:51;;;;;;;;;;;;;;;1.19;72.66;100249.94;5105603;28;20034;-66
2022/10/26 06:08:17;;;;;;;;;;;;;;;1.29;72.04;100254.94;5106033;28;20418;-66
2022/10/26 06:10:43;;;;;;;;;;;;;;;1.34;71.84;100252.47;5107047;28;19928;-66
2022/10/26 06:13:10;;;;;;;;;;;;;;;1.37;71.82;100247.50;5096020;28;20380;-66
2022/10/26 06:15:41;;;;;;;;;;;;;;;1.46;71.44;100255.41;5089664;28;19927;-66
2022/10/26 06:18:13;;;;;;;;;;;;;;;1.45;71.31;100254.56;5097497;28;19971;-66
2022/10/26 06:20:46;;;;;;;;;;;;;;;1.54;70.68;100261.44;5088371;28;19989;-66
2022/10/26 06:23:18;;;;;;;;;;;;;;;1.49;70.24;100246.94;5089272;28;19978;-66
2022/10/26 06:25:48;;;;;;;;;;;;;;;1.49;70.30;100249.63;5086072;28;20107;-66
2022/10/26 06:28:20;;;;;;;;;;;;;;;1.53;70.01;100261.66;5088193;28;19934;-66
2022/10/26 06:30:46;;;;;;;;;;;;;;;1.45;70.31;100259.97;5084872;28;19935;-66
2022/10/26 06:33:12;;;;;;;;;;;;;;;1.49;70.35;100255.00;5088667;28;19928;-66
2022/10/26 06:35:44;;;;;;;;;;;;;;;1.48;70.09;100243.38;5092424;28;19992;-66
2022/10/26 06:38:12;;;;;;;;;;;;;;;1.49;70.24;100250.44;5090077;28;19975;-65
2022/10/26 06:40:39;;;;;;;;;;;;;;;1.58;69.82;100242.19;5108032;28;19934;-65
2022/10/26 06:43:08;;;;;;;;;;;;;;;1.57;69.46;100241.31;5107172;28;19966;-66
2022/10/26 06:45:36;;;;;;;;;;;;;;;1.57;69.46;100235.13;5107260;28;19928;-65
2022/10/26 06:48:06;;;;;;;;;;;;;;;1.67;69.18;100236.38;5107990;28;19954;-66
2022/10/26 06:50:35;;;;;;;;;;;;;;;1.67;69.10;100232.84;5101988;28;19973;-66
2022/10/26 06:53:05;;;;;;;;;;;;;;;1.73;68.73;100240.13;5086856;28;20290;-66
2022/10/26 06:55:38;;;;;;;;;;;;;;;1.76;68.96;100244.25;5086131;28;19928;-65
2022/10/26 06:58:04;;;;;;;;;;;;;;;1.92;68.67;100243.84;5087590;28;20458;-66
2022/10/26 07:00:31;;;;;;;;;;;;;;;2.12;68.18;100240.34;5088702;28;20038;-66
2022/10/26 07:02:58;;;;;;;;;;;;;;;2.31;67.42;100248.63;5087488;28;20138;-66
2022/10/26 07:05:24;;;;;;;;;;;;;;;2.34;66.64;100238.25;5089022;28;19932;-66
2022/10/26 07:07:50;;;;;;;;;;;;;;;2.26;66.57;100244.72;5100216;28;20484;-65
2022/10/26 07:10:15;;;;;;;;;;;;;;;2.26;66.65;100242.00;5105850;28;19939;-65
2022/10/26 07:12:41;;;;;;;;;;;;;;;2.22;66.74;100229.13;5109924;28;19955;-66
2022/10/26 07:15:07;;;;;;;;;;;;;;;2.34;66.53;100240.13;5108622;28;19927;-66
2022/10/26 07:17:41;;;;;;;;;;;;;;;2.41;66.06;100235.53;5103370;28;19927;-66
2022/10/26 07:20:08;;;;;;;;;;;;;;;2.29;66.34;100234.53;5102062;28;19928;-66
2022/10/26 07:22:34;;;;;;;;;;;;;;;2.29;66.88;100237.22;5078249;28;19932;-66
2022/10/26 07:25:00;;;;;;;;;;;;;;;2.43;66.32;100246.97;5090805;28;19935;-65
2022/10/26 07:27:26;;;;;;;;;;;;;;;2.48;65.94;100235.50;5088305;28;19928;-65
2022/10/26 07:29:51;;;;;;;;;;;;;;;2.43;66.11;100244.28;5094744;28;19982;-65
2022/10/26 07:32:17;;;;;;;;;;;;;;;2.49;65.98;100240.72;5110041;28;19973;-65
2022/10/26 07:34:43;;;;;;;;;;;;;;;2.52;65.91;100250.28;5110627;28;19951;-66
2022/10/26 07:37:10;;;;;;;;;;;;;;;2.59;65.99;100245.69;5110934;27;20004;-66
2022/10/26 07:39:36;;;;;;;;;;;;;;;2.67;65.81;100250.03;5108077;28;20432;-66
2022/10/26 07:42:01;;;;;;;;;;;;;;;2.76;65.47;100246.06;5110991;28;19928;-66
2022/10/26 07:44:27;;;;;;;;;;;;;;;2.70;65.27;100241.50;5093831;28;20387;-65
2022/10/26 07:46:53;;;;;;;;;;;;;;;2.53;66.04;100238.44;5104046;28;19928;-65
2022/10/26 07:49:18;;;;;;;;;;;;;;;2.53;66.10;100233.03;5102853;28;19928;-66
2022/10/26 07:51:44;;;;;;;;;;;;;;;2.48;66.35;100235.50;5063993;28;20429;-66
2022/10/26 07:54:11;;;;;;;;;;;;;;;2.39;66.43;100234.91;5090121;28;19928;-65
2022/10/26 07:56:37;;;;;;;;;;;;;;;2.38;66.88;100241.34;5103523;28;19951;-66
2022/10/26 07:59:03;;;;;;;;;;;;;;;2.58;66.21;100240.50;5108934;28;19927;-66
2022/10/26 08:01:29;;;;;;;;;;;;;;;2.84;65.75;100245.00;5106680;28;20322;-66
2022/10/26 08:03:55;;;;;;;;;;;;;;;3.24;64.56;100241.31;5110527;28;20031;-66
2022/10/26 08:06:21;;;;;;;;;;;;;;;3.72;63.06;100244.56;5094514;28;20373;-66
2022/10/26 08:08:47;;;;;;;;;;;;;;;3.99;61.93;100249.81;5099242;28;19927;-65
2022/10/26 08:11:15;;;;;;;;;;;;;;;4.58;60.42;100241.34;5109473;28;20480;-65
2022/10/26 08:13:40;;;;;;;;;;;;;;;5.24;58.45;100250.59;5107213;28;19981;-65
2022/10/26 08:16:06;;;;;;;;;;;;;;;6.10;56.41;100252.31;5095817;28;20389;-66
2022/10/26 08:18:32;;;;;;;;;;;;;;;6.91;53.78;100247.31;5090495;28;20015;-66
2022/10/26 08:21:01;;;;;;;;;;;;;;;7.65;51.95;100251.25;5095444;28;20030;-66
2022/10/26 08:23:26;;;;;;;;;;;;;;;8.12;50.00;100241.94;5093696;28;20390;-66
2022/10/26 08:25:56;;;;;;;;;;;;;;;8.25;49.50;100245.41;5099292;28;19927;-66
2022/10/26 08:28:23;;;;;;;;;;;;;;;8.42;49.00;100246.22;5090991;28;19970;-66
2022/10/26 08:30:49;;;;;;;;;;;;;;;8.11;48.53;100240.31;5072584;28;19963;-66
2022/10/26 08:33:14;;;;;;;;;;;;;;;7.63;49.58;100229.69;5090182;28;19967;-66
2022/10/26 08:35:40;;;;;;;;;;;;;;;7.31;50.68;100232.91;5090935;28;20328;-66
2022/10/26 08:38:06;;;;;;;;;;;;;;;7.16;50.60;100243.50;5088501;28;20026;-66
2022/10/26 08:40:33;;;;;;;;;;;;;;;6.84;51.51;100244.72;5088233;28;19928;-66
2022/10/26 08:43:00;;;;;;;;;;;;;;;6.79;51.51;100237.31;5087211;28;19936;-66
2022/10/26 08:45:30;;;;;;;;;;;;;;;6.68;51.95;100240.88;5087980;28;19958;-66
2022/10/26 08:47:58;;;;;;;;;;;;;;;6.99;51.08;100243.41;5089826;28;19963;-66
2022/10/26 08:50:26;;;;;;;;;;;;;;;7.13;50.83;100242.06;5090230;28;19955;-66
2022/10/26 08:53:01;;;;;;;;;;;;;;;7.37;50.52;100242.00;5089063;28;19928;-66
2022/10/26 08:55:30;;;;;;;;;;;;;;;7.57;50.03;100238.84;5090328;28;19928;-66
2022/10/26 08:58:00;;;;;;;;;;;;;;;8.18;49.00;100235.50;5088756;28;20343;-65
2022/10/26 09:00:28;;;;;;;;;;;;;;;9.19;47.18;100232.81;5089297;28;20316;-66
2022/10/26 09:02:55;;;;;;;;;;;;;;;10.10;45.22;100239.72;5088658;28;20431;-66
2022/10/26 09:05:24;;;;;;;;;;;;;;;11.01;43.15;100231.56;5088173;28;20488;-66
2022/10/26 09:07:56;;;;;;;;;;;;;;;11.31;42.32;100230.03;5088361;28;19938;-66
2022/10/26 09:10:45;;;;;;;;;;;;;;;11.39;42.14;100231.41;5089685;28;19928;-66
2022/10/26 09:13:16;;;;;;;;;;;;;;;11.52;42.06;100230.06;5091534;28;19980;-66
2022/10/26 09:15:48;;;;;;;;;;;;;;;12.33;40.43;100224.94;5084086;28;19985;-66
2022/10/26 09:18:22;;;;;;;;;;;;;;;12.45;39.42;100230.94;5110716;28;19928;-66
2022/10/26 09:21:02;;;;;;;;;;;;;;;12.17;39.52;100241.38;5109225;28;20362;-66
2022/10/26 09:23:39;;;;;;;;;;;;;;;11.56;39.89;100234.72;5110848;28;19927;-66
2022/10/26 09:26:12;;;;;;;;;;;;;;;11.23;40.81;100227.78;5073643;28;19936;-66
2022/10/26 09:28:39;;;;;;;;;;;;;;;11.06;41.16;100229.66;5091210;28;19928;-67
2022/10/26 09:31:05;;;;;;;;;;;;;;;11.16;40.37;100236.25;5090427;28;20030;-66
2022/10/26 09:33:35;;;;;;;;;;;;;;;10.71;41.11;100233.03;5078142;28;20027;-66
2022/10/26 09:36:02;;;;;;;;;;;;;;;10.32;41.96;100242.34;5089064;28;20450;-66
2022/10/26 09:38:31;;;;;;;;;;;;;;;10.23;42.20;100231.06;5093715;28;21323;-66
2022/10/26 09:41:00;;;;;;;;;;;;;;;9.67;43.06;100228.69;5103534;28;19959;-66
2022/10/26 09:43:28;;;;;;;;;;;;;;;8.89;44.78;100236.81;5072433;28;19935;-66
2022/10/26 09:45:54;;;;;;;;;;;;;;;7.84;46.72;100232.78;5101582;28;19935;-66
2022/10/26 09:48:22;;;;;;;;;;;;;;;7.15;48.43;100222.81;5109769;28;19928;-66
2022/10/26 09:50:50;;;;;;;;;;;;;;;6.83;49.37;100231.41;5098229;28;20026;-66
2022/10/26 09:53:15;;;;;;;;;;;;;;;6.80;49.72;100233.53;5097333;28;19938;-66
2022/10/26 09:55:43;;;;;;;;;;;;;;;6.93;49.62;100227.00;5097456;28;20030;-65
2022/10/26 09:58:12;;;;;;;;;;;;;;;7.04;49.41;100236.19;5082739;28;20395;-66
2022/10/26 10:00:39;;;;;;;;;;;;;;;7.30;48.83;100230.44;5101766;28;19928;-66
2022/10/26 10:03:16;;;;;;;;;;;;;;;7.75;48.03;100236.97;5095451;28;19932;-66
2022/10/26 10:05:41;;;;;;;;;;;;;;;8.42;46.31;100237.22;5091994;28;19928;-66
2022/10/26 10:08:15;;;;;;;;;;;;;;;8.56;45.92;100222.19;5102423;28;19928;-66
2022/10/26 10:10:52;;;;;;;;;;;;;;;8.52;45.52;100223.78;5089456;28;19928;-66
2022/10/26 10:13:20;;;;;;;;;;;;;;;8.06;46.53;100227.41;5082518;28;19935;-66
2022/10/26 10:15:53;;;;;;;;;;;;;;;8.09;46.88;100228.84;5105662;28;19977;-66
2022/10/26 10:18:19;;;;;;;;;;;;;;;8.11;46.78;100232.13;5101315;28;19950;-66
2022/10/26 10:20:50;;;;;;;;;;;;;;;7.79;46.86;100224.53;5098822;28;19932;-66
2022/10/26 10:23:24;;;;;;;;;;;;;;;7.33;48.12;100225.34;5092605;28;19928;-66
2022/10/26 10:25:57;;;;;;;;;;;;;;;7.17;48.83;100231.53;5092593;28;19934;-66
2022/10/26 10:28:24;;;;;;;;;;;;;;;7.06;49.02;100225.09;5097471;28;20009;-66
2022/10/26 10:30:58;;;;;;;;;;;;;;;7.21;48.97;100222.66;5099473;28;19939;-66
2022/10/26 10:33:32;;;;;;;;;;;;;;;7.24;48.97;100221.34;5095984;28;20256;-65
2022/10/26 10:35:58;;;;;;;;;;;;;;;7.10;49.40;100228.97;5089368;28;20791;-66
2022/10/26 10:38:25;;;;;;;;;;;;;;;7.18;49.38;100220.44;5089408;28;19935;-66
2022/10/26 10:40:52;;;;;;;;;;;;;;;7.15;49.31;100217.38;5087776;28;19971;-65
2022/10/26 10:43:19;;;;;;;;;;;;;;;7.16;49.40;100217.09;5088726;28;20019;-66
2022/10/26 10:45:46;;;;;;;;;;;;;;;7.21;49.32;100216.38;5101118;28;19932;-66
2022/10/26 10:48:14;;;;;;;;;;;;;;;7.22;49.55;100220.75;5118906;28;19928;-66
2022/10/26 10:50:50;;;;;;;;;;;;;;;7.11;49.70;100222.47;5085148;28;19959;-66
2022/10/26 10:53:18;;;;;;;;;;;;;;;6.88;50.20;100226.91;5084048;28;19940;-65
2022/10/26 10:55:50;;;;;;;;;;;;;;;6.56;51.03;100221.88;5086400;28;20026;-65
2022/10/26 10:58:21;;;;;;;;;;;;;;;6.45;51.27;100223.50;5088049;28;19959;-66
2022/10/26 11:00:48;;;;;;;;;;;;;;;6.35;51.75;100226.81;5104882;28;20135;-65
2022/10/26 11:03:28;;;;;;;;;;;;;;;6.34;51.71;100229.78;5108268;28;19973;-66
2022/10/26 11:06:00;;;;;;;;;;;;;;;6.26;52.04;100228.25;5108969;28;19928;-66
2022/10/26 11:08:28;;;;;;;;;;;;;;;6.20;52.37;100226.47;5109817;28;20399;-65
2022/10/26 11:10:59;;;;;;;;;;;;;;;6.17;52.53;100232.38;5100335;28;19928;-66
2022/10/26 11:13:28;;;;;;;;;;;;;;;6.01;52.74;100239.28;5097560;28;19934;-65
2022/10/26 11:15:58;;;;;;;;;;;;;;;5.91;53.15;100231.69;5092586;28;19932;-65
2022/10/26 11:18:26;;;;;;;;;;;;;;;5.82;53.40;100236.66;5086420;28;19967;-65
2022/10/26 11:20:56;;;;;;;;;;;;;;;5.67;53.78;100234.38;5092483;28;19974;-65
2022/10/26 11:23:25;;;;;;;;;;;;;;;5.72;53.89;100225.53;5055604;28;20323;-65
2022/10/26 11:25:52;;;;;;;;;;;;;;;5.77;53.76;100231.91;5097776;28;20310;-66
2022/10/26 11:28:33;;;;;;;;;;;;;;;5.74;53.64;100223.44;5101230;28;19928;-66
2022/10/26 11:31:02;;;;;;;;;;;;;;;5.68;53.75;100222.47;5102559;28;19928;-65
2022/10/26 11:33:29;;;;;;;;;;;;;;;5.64;53.86;100213.13;5101122;28;20391;-66
2022/10/26 11:35:57;;;;;;;;;;;;;;;5.65;53.75;100223.75;5087799;28;19927;-66
2022/10/26 11:38:28;;;;;;;;;;;;;;;5.70;53.74;100220.34;5101353;28;19928;-66
2022/10/26 11:40:57;;;;;;;;;;;;;;;5.68;53.88;100227.88;5096956;28;20452;-66
2022/10/26 11:43:29;;;;;;;;;;;;;;;5.59;54.05;100219.25;5090282;28;19974;-65
2022/10/26 11:46:01;;;;;;;;;;;;;;;5.61;54.03;100221.72;5103856;28;19928;-66
2022/10/26 11:48:31;;;;;;;;;;;;;;;5.64;54.01;100213.94;5089651;28;19950;-66
2022/10/26 11:50:58;;;;;;;;;;;;;;;5.60;54.10;100223.63;5088542;28;19928;-65
2022/10/26 11:53:26;;;;;;;;;;;;;;;5.57;54.31;100213.22;5088364;28;19928;-66
2022/10/26 11:55:55;;;;;;;;;;;;;;;5.56;54.44;100213.47;5090355;28;19928;-65
2022/10/26 11:58:23;;;;;;;;;;;;;;;5.62;54.63;100216.06;5087600;28;19951;-67
2022/10/26 12:00:54;;;;;;;;;;;;;;;5.58;55.04;100209.47;5090237;28;19981;-66
2022/10/26 12:03:22;;;;;;;;;;;;;;;5.53;55.75;100209.31;5089586;28;19928;-66
2022/10/26 12:05:49;;;;;;;;;;;;;;;5.47;56.15;100207.53;4393732;28;10000266;-66
2022/10/26 12:08:18;;;;;;;;;;;;;;;5.47;56.24;100210.25;5092763;28;19934;-66
2022/10/26 12:10:50;;;;;;;;;;;;;;;5.41;56.11;100198.44;5087982;28;19947;-66
2022/10/26 12:13:20;;;;;;;;;;;;;;;5.36;56.25;100204.53;5084011;28;19981;-66
2022/10/26 12:15:47;;;;;;;;;;;;;;;5.37;56.44;100208.91;5094953;28;19935;-66
2022/10/26 12:18:22;;;;;;;;;;;;;;;5.36;56.48;100201.81;5094475;28;19928;-65
2022/10/26 12:20:51;;;;;;;;;;;;;;;5.40;56.61;100207.63;5076210;28;19971;-66
2022/10/26 12:23:17;;;;;;;;;;;;;;;5.38;56.70;100204.31;5090063;28;20065;-65
2022/10/26 12:25:43;;;;;;;;;;;;;;;5.34;56.40;100205.84;5099506;28;19931;-65
2022/10/26 12:28:37;;;;;;;;;;;;;;;5.33;56.69;100205.00;5086997;28;20030;-65
2022/10/26 12:31:17;;;;;;;;;;;;;;;5.32;56.74;100205.25;5098344;28;20482;-65
2022/10/26 12:33:54;;;;;;;;;;;;;;;5.23;56.17;100193.91;5106681;28;20411;-66
2022/10/26 12:36:40;;;;;;;;;;;;;;;5.05;56.06;100194.75;5096060;28;19928;-66
2022/10/26 12:39:25;;;;;;;;;;;;;;;4.90;56.14;100195.97;5084767;28;20303;-66
2022/10/26 12:41:54;;;;;;;;;;;;;;;4.83;56.86;100200.63;5088343;28;19928;-64
2022/10/26 12:44:33;;;;;;;;;;;;;;;4.86;57.11;100191.22;5086710;28;19928;-64
2022/10/26 12:46:59;;;;;;;;;;;;;;;4.86;57.33;100194.78;5090962;28;19935;-64
2022/10/26 12:49:40;;;;;;;;;;;;;;;4.87;57.45;100198.31;5087567;28;19928;-65